This is the latest recevied weather packets stored in our database for station/object KO4ZGL-13. If no packets are shown the sender has not sent any weather packets the latest 10 day(s).
| Time | Temp. | Humidity | Pressure | Rain* | Wind** | Luminosity | Snow |
|---|---|---|---|---|---|---|---|
| 1787788583 | 23.89° C | 98% | 1015.8 hPa | 0 mm | - | 0 W/m² | - |
| 1787788278 | 23.89° C | 98% | 1015.6 hPa | 0 mm | - | 1 W/m² | - |
| 1787787974 | 23.89° C | 98% | 1015.7 hPa | 0 mm | - | 5 W/m² | - |
| 1787787668 | 23.89° C | 97% | 1015.9 hPa | 0 mm | - | 6 W/m² | - |
| 1787787367 | 23.89° C | 97% | 1016.1 hPa | 0 mm | - | 7 W/m² | - |
| 1787787066 | 23.89° C | 97% | 1016.2 hPa | 0 mm | - | 10 W/m² | - |
| 1787786761 | 24.44° C | 96% | 1016.3 hPa | 0 mm | - | 13 W/m² | - |
| 1787786456 | 24.44° C | 96% | 1016.1 hPa | 0 mm | - | 19 W/m² | - |
| 1787786152 | 24.44° C | 96% | 1016.3 hPa | 0 mm | - | 24 W/m² | - |
| 1787785847 | 24.44° C | 95% | 1016.2 hPa | 0 mm | - | 27 W/m² | - |
| 1787785543 | 25° C | 94% | 1016.3 hPa | 0 mm | - | 25 W/m² | - |
| 1787785243 | 25° C | 94% | 1016.7 hPa | 0 mm | - | 25 W/m² | - |
| 1787784937 | 25° C | 93% | 1016.6 hPa | 0 mm | - | 29 W/m² | - |
| 1787784636 | 25° C | 93% | 1016.5 hPa | 0 mm | - | 39 W/m² | - |
| 1787784334 | 25° C | 94% | 1016.8 hPa | 0 mm | - | 33 W/m² | - |
| 1787784024 | 25.56° C | 96% | 1016.6 hPa | 0 mm | - | 23 W/m² | - |
| 1787783720 | 26.67° C | 97% | 1016.5 hPa | 0 mm | - | 9 W/m² | - |
| 1787783420 | 26.11° C | 97% | 1016.4 hPa | 0 mm | - | 37 W/m² | - |
| 1787783116 | 26.67° C | 97% | 1016.6 hPa | 0 mm | - | 39 W/m² | - |
| 1787782816 | 26.67° C | 96% | 1016.4 hPa | 0 mm | - | 48 W/m² | - |
| 1787782510 | 26.67° C | 96% | 1016.3 hPa | 0 mm | - | 52 W/m² | - |
| 1787782205 | 26.67° C | 95% | 1016.5 hPa | 0 mm | - | 49 W/m² | - |
| 1787781901 | 27.22° C | 94% | 1016.5 hPa | 0 mm | - | 52 W/m² | - |
| 1787781598 | 27.78° C | 94% | 1016.5 hPa | 0 mm | - | 60 W/m² | - |
| 1787781293 | 27.78° C | 93% | 1016.4 hPa | 0 mm | - | 79 W/m² | - |
* Rain latest hour (hover to see other rain measurements)
** Current wind speed in m/s (hover to see current wind gust speed)